createdAt,value
2023-04-10T00:00:57.000Z,6.9
2023-04-10T00:02:14.000Z,6.9
2023-04-10T00:03:30.000Z,6.9
2023-04-10T00:04:46.000Z,7
2023-04-10T00:06:02.000Z,7
2023-04-10T00:07:19.000Z,7.2
2023-04-10T00:08:35.000Z,7.3
2023-04-10T00:09:51.000Z,7.5
2023-04-10T00:11:07.000Z,7.7
2023-04-10T00:12:23.000Z,7.7
2023-04-10T00:13:40.000Z,7.8
2023-04-10T00:14:55.000Z,7.9
2023-04-10T00:16:11.000Z,7.9
2023-04-10T00:17:27.000Z,8
2023-04-10T00:18:44.000Z,8
2023-04-10T00:20:00.000Z,8
2023-04-10T00:21:16.000Z,8
2023-04-10T00:22:32.000Z,8
2023-04-10T00:23:49.000Z,8
2023-04-10T00:25:05.000Z,8.1
2023-04-10T00:26:21.000Z,8.2
2023-04-10T00:27:37.000Z,8.2
2023-04-10T00:28:54.000Z,8.2
2023-04-10T00:30:10.000Z,8.2
2023-04-10T00:31:25.000Z,8.2
2023-04-10T00:32:41.000Z,8.2
2023-04-10T00:33:57.000Z,8.2
2023-04-10T00:35:14.000Z,8.2
2023-04-10T00:36:30.000Z,8.1
2023-04-10T00:37:46.000Z,8.1
2023-04-10T00:39:02.000Z,8.1
2023-04-10T00:40:19.000Z,8
2023-04-10T00:41:35.000Z,8
2023-04-10T00:42:51.000Z,7.9
2023-04-10T00:44:07.000Z,7.9
2023-04-10T00:45:24.000Z,7.9
2023-04-10T00:46:40.000Z,7.9
2023-04-10T00:47:55.000Z,7.9
2023-04-10T00:49:11.000Z,7.9
2023-04-10T00:50:28.000Z,8
2023-04-10T00:51:44.000Z,8
2023-04-10T00:53:00.000Z,8.1
2023-04-10T00:54:16.000Z,8
2023-04-10T00:55:32.000Z,8
2023-04-10T00:56:49.000Z,8
2023-04-10T00:58:05.000Z,8
2023-04-10T00:59:21.000Z,8
2023-04-10T01:00:37.000Z,8
2023-04-10T01:01:54.000Z,8
2023-04-10T01:03:10.000Z,8
2023-04-10T01:04:26.000Z,8
2023-04-10T01:05:41.000Z,7.9
2023-04-10T01:06:58.000Z,7.9
2023-04-10T01:08:14.000Z,7.8
2023-04-10T01:09:30.000Z,7.8
2023-04-10T01:10:46.000Z,7.8
2023-04-10T01:12:03.000Z,7.9
2023-04-10T01:13:19.000Z,7.8
2023-04-10T01:14:35.000Z,7.8
2023-04-10T01:15:51.000Z,7.8
2023-04-10T01:17:07.000Z,7.8
2023-04-10T01:18:24.000Z,7.8
2023-04-10T01:19:40.000Z,7.8
2023-04-10T01:20:56.000Z,7.8
2023-04-10T01:22:11.000Z,7.8
2023-04-10T01:23:28.000Z,7.9
2023-04-10T01:24:44.000Z,7.8
2023-04-10T01:26:00.000Z,7.8
2023-04-10T01:27:16.000Z,7.8
2023-04-10T01:28:33.000Z,7.8
2023-04-10T01:29:49.000Z,7.8
2023-04-10T01:31:05.000Z,7.8
2023-04-10T01:32:21.000Z,7.8
2023-04-10T01:33:38.000Z,7.8
2023-04-10T01:34:54.000Z,7.7
2023-04-10T01:36:10.000Z,7.7
2023-04-10T01:37:26.000Z,7.8
2023-04-10T01:38:41.000Z,7.8
2023-04-10T01:39:58.000Z,7.8
2023-04-10T01:41:14.000Z,7.8
2023-04-10T01:42:30.000Z,7.8
2023-04-10T01:43:46.000Z,7.8
2023-04-10T01:45:03.000Z,7.7
2023-04-10T01:46:19.000Z,7.7
2023-04-10T01:47:35.000Z,7.7
2023-04-10T01:48:51.000Z,7.7
2023-04-10T01:50:08.000Z,7.7
2023-04-10T01:51:24.000Z,7.7
2023-04-10T01:52:40.000Z,7.8
2023-04-10T01:55:13.000Z,7.7
2023-04-10T01:56:28.000Z,7.7
2023-04-10T01:57:44.000Z,7.8
2023-04-10T01:59:00.000Z,7.7
2023-04-10T02:00:16.000Z,7.7
2023-04-10T02:01:33.000Z,7.7
2023-04-10T02:02:49.000Z,7.7
2023-04-10T02:04:05.000Z,7.6
2023-04-10T02:05:21.000Z,7.6
2023-04-10T02:06:38.000Z,7.6
2023-04-10T02:07:54.000Z,7.6
2023-04-10T02:09:10.000Z,7.6
2023-04-10T02:10:26.000Z,7.6
2023-04-10T02:11:43.000Z,7.6
2023-04-10T02:12:58.000Z,7.7
2023-04-10T02:14:14.000Z,7.7
2023-04-10T02:15:30.000Z,7.6
2023-04-10T02:16:47.000Z,7.5
2023-04-10T02:18:03.000Z,7.5
2023-04-10T02:19:19.000Z,7.5
2023-04-10T02:20:35.000Z,7.5
2023-04-10T02:21:51.000Z,7.5
2023-04-10T02:23:08.000Z,7.5
2023-04-10T02:24:24.000Z,7.5
2023-04-10T02:25:40.000Z,7.5
2023-04-10T02:26:56.000Z,7.5
2023-04-10T02:28:13.000Z,7.5
2023-04-10T02:29:28.000Z,7.5
2023-04-10T02:30:44.000Z,7.5
2023-04-10T02:32:00.000Z,7.4
2023-04-10T02:33:17.000Z,7.4
2023-04-10T02:34:33.000Z,7.5
2023-04-10T02:35:49.000Z,7.4
2023-04-10T02:37:05.000Z,7.4
2023-04-10T02:38:22.000Z,7.4
2023-04-10T02:39:38.000Z,7.4
2023-04-10T02:40:54.000Z,7.3
2023-04-10T02:42:10.000Z,7.2
2023-04-10T02:43:26.000Z,7.2
2023-04-10T02:44:43.000Z,7.1
2023-04-10T02:47:14.000Z,7.1
2023-04-10T02:48:30.000Z,7.1
2023-04-10T02:49:47.000Z,7.2
2023-04-10T02:51:03.000Z,7.1
2023-04-10T02:52:19.000Z,7.1
2023-04-10T02:53:35.000Z,7.1
2023-04-10T02:54:52.000Z,7.1
2023-04-10T02:56:08.000Z,7.1
2023-04-10T02:57:24.000Z,7
2023-04-10T02:58:40.000Z,7
2023-04-10T02:59:57.000Z,7.1
2023-04-10T03:01:13.000Z,7.1
2023-04-10T03:02:28.000Z,7
2023-04-10T03:03:44.000Z,7
2023-04-10T03:05:00.000Z,7
2023-04-10T03:06:17.000Z,7
2023-04-10T03:07:33.000Z,6.9
2023-04-10T03:08:49.000Z,6.9
2023-04-10T03:10:05.000Z,6.9
2023-04-10T03:11:22.000Z,6.9
2023-04-10T03:12:38.000Z,7
2023-04-10T03:13:54.000Z,7
2023-04-10T03:15:10.000Z,7
2023-04-10T03:16:27.000Z,7
2023-04-10T03:17:43.000Z,7
2023-04-10T03:18:58.000Z,7.1
2023-04-10T03:20:14.000Z,7.1
2023-04-10T03:21:31.000Z,7
2023-04-10T03:22:47.000Z,7
2023-04-10T03:24:03.000Z,6.9
2023-04-10T03:25:18.000Z,6.9
2023-04-10T03:26:34.000Z,7
2023-04-10T03:27:51.000Z,7
2023-04-10T03:29:07.000Z,6.9
2023-04-10T03:30:23.000Z,6.9
2023-04-10T03:31:39.000Z,6.9
2023-04-10T03:32:56.000Z,7
2023-04-10T03:34:12.000Z,7
2023-04-10T03:35:28.000Z,7
2023-04-10T03:36:44.000Z,7
2023-04-10T03:38:01.000Z,7
2023-04-10T03:40:33.000Z,7
2023-04-10T03:41:48.000Z,7
2023-04-10T03:43:05.000Z,7
2023-04-10T03:44:21.000Z,7
2023-04-10T03:45:37.000Z,7
2023-04-10T03:46:53.000Z,7
2023-04-10T03:48:09.000Z,7.1
2023-04-10T03:49:26.000Z,7.1
2023-04-10T03:50:42.000Z,7.1
2023-04-10T03:51:58.000Z,7.1
2023-04-10T03:53:14.000Z,7.1
2023-04-10T03:54:31.000Z,7.1
2023-04-10T03:55:47.000Z,7.1
2023-04-10T03:57:03.000Z,7
2023-04-10T03:58:18.000Z,7
2023-04-10T04:00:51.000Z,7.1
2023-04-10T04:02:07.000Z,7
2023-04-10T04:03:23.000Z,7
2023-04-10T04:04:40.000Z,7
2023-04-10T04:05:56.000Z,7
2023-04-10T04:07:12.000Z,7
2023-04-10T04:08:28.000Z,7
2023-04-10T04:09:44.000Z,7
2023-04-10T04:11:01.000Z,7
2023-04-10T04:12:17.000Z,7
2023-04-10T04:13:33.000Z,7
2023-04-10T04:14:48.000Z,6.9
2023-04-10T04:16:05.000Z,6.9
2023-04-10T04:17:21.000Z,6.9
2023-04-10T04:18:37.000Z,6.9
2023-04-10T04:19:53.000Z,6.9
2023-04-10T04:21:10.000Z,6.9
2023-04-10T04:22:26.000Z,6.9
2023-04-10T04:23:42.000Z,6.9
2023-04-10T04:24:58.000Z,6.8
2023-04-10T04:26:15.000Z,6.8
2023-04-10T04:27:31.000Z,6.8
2023-04-10T04:28:47.000Z,6.8
2023-04-10T04:30:03.000Z,6.8
2023-04-10T04:31:19.000Z,6.8
2023-04-10T04:32:35.000Z,6.8
2023-04-10T04:33:51.000Z,6.8
2023-04-10T04:35:07.000Z,6.8
2023-04-10T04:36:23.000Z,6.9
2023-04-10T04:37:40.000Z,6.9
2023-04-10T04:38:56.000Z,6.9
2023-04-10T04:40:12.000Z,6.9
2023-04-10T04:41:28.000Z,6.8
2023-04-10T04:42:45.000Z,6.8
2023-04-10T04:44:01.000Z,6.9
2023-04-10T04:45:17.000Z,6.9
2023-04-10T04:47:50.000Z,6.9
2023-04-10T04:49:05.000Z,6.9
2023-04-10T04:50:21.000Z,6.9
2023-04-10T04:51:37.000Z,6.9
2023-04-10T04:52:53.000Z,6.9
2023-04-10T04:54:10.000Z,6.8
2023-04-10T04:55:26.000Z,6.8
2023-04-10T04:56:42.000Z,6.7
2023-04-10T04:57:58.000Z,6.7
2023-04-10T04:59:15.000Z,6.8
2023-04-10T05:00:31.000Z,6.8
2023-04-10T05:01:47.000Z,6.8
2023-04-10T05:03:03.000Z,6.8
2023-04-10T05:04:20.000Z,6.8
2023-04-10T05:05:35.000Z,6.8
2023-04-10T05:06:51.000Z,6.8
2023-04-10T05:08:07.000Z,6.9
2023-04-10T05:09:24.000Z,6.9
2023-04-10T05:10:40.000Z,6.9
2023-04-10T05:11:56.000Z,7
2023-04-10T05:13:12.000Z,7
2023-04-10T05:14:28.000Z,7
2023-04-10T05:15:45.000Z,7
2023-04-10T05:17:01.000Z,7
2023-04-10T05:18:17.000Z,7
2023-04-10T05:19:33.000Z,7
2023-04-10T05:20:50.000Z,7.1
2023-04-10T05:22:05.000Z,7.1
2023-04-10T05:23:21.000Z,7.2
2023-04-10T05:24:37.000Z,7.2
2023-04-10T05:25:54.000Z,7.3
2023-04-10T05:27:10.000Z,7.3
2023-04-10T05:28:26.000Z,7.4
2023-04-10T05:29:42.000Z,7.4
2023-04-10T05:30:59.000Z,7.5
2023-04-10T05:32:15.000Z,7.6
2023-04-10T05:33:31.000Z,7.6
2023-04-10T05:34:47.000Z,7.6
2023-04-10T05:36:04.000Z,7.6
2023-04-10T05:37:20.000Z,7.6
2023-04-10T05:38:35.000Z,7.6
2023-04-10T05:39:51.000Z,7.6
2023-04-10T05:42:24.000Z,7.6
2023-04-10T05:43:40.000Z,7.7
2023-04-10T05:44:56.000Z,7.7
2023-04-10T05:46:12.000Z,7.8
2023-04-10T05:47:29.000Z,7.8
2023-04-10T05:48:45.000Z,7.8
2023-04-10T05:50:01.000Z,7.8
2023-04-10T05:51:17.000Z,7.8
2023-04-10T05:52:34.000Z,7.9
2023-04-10T05:53:50.000Z,7.9
2023-04-10T05:55:05.000Z,7.9
2023-04-10T05:56:21.000Z,7.9
2023-04-10T05:57:38.000Z,8
2023-04-10T05:58:54.000Z,8
2023-04-10T06:00:10.000Z,8
2023-04-10T06:01:26.000Z,8
2023-04-10T06:02:42.000Z,8
2023-04-10T06:03:59.000Z,8
2023-04-10T06:05:15.000Z,8
2023-04-10T06:06:31.000Z,8
2023-04-10T06:07:47.000Z,8
2023-04-10T06:09:04.000Z,8
2023-04-10T06:10:20.000Z,8.1
2023-04-10T06:11:35.000Z,8.1
2023-04-10T06:12:51.000Z,8.1
2023-04-10T06:14:08.000Z,8.2
2023-04-10T06:15:24.000Z,8.2
2023-04-10T06:16:40.000Z,8.3
2023-04-10T06:17:56.000Z,8.3
2023-04-10T06:19:13.000Z,8.3
2023-04-10T06:20:29.000Z,8.4
2023-04-10T06:21:45.000Z,8.4
2023-04-10T06:23:01.000Z,8.4
2023-04-10T06:24:17.000Z,8.5
2023-04-10T06:25:34.176Z,8.6
2023-04-10T06:26:50.000Z,8.6
2023-04-10T06:28:05.000Z,8.7
2023-04-10T06:29:21.000Z,8.8
2023-04-10T06:30:38.000Z,8.9
2023-04-10T06:31:54.000Z,9
2023-04-10T06:33:10.000Z,9
2023-04-10T06:34:26.000Z,9.1
2023-04-10T06:35:43.000Z,9.2
2023-04-10T06:36:59.000Z,9.3
2023-04-10T06:38:15.000Z,9.4
2023-04-10T06:39:31.000Z,9.5
2023-04-10T06:40:47.000Z,9.6
2023-04-10T06:42:04.000Z,9.7
2023-04-10T06:43:20.000Z,9.8
2023-04-10T06:44:35.000Z,9.8
2023-04-10T06:45:51.000Z,9.9
2023-04-10T06:47:08.000Z,10
2023-04-10T06:48:24.000Z,10.1
2023-04-10T06:49:40.000Z,10.2
2023-04-10T06:50:56.000Z,10.2
2023-04-10T06:52:13.000Z,10.3
2023-04-10T06:53:29.000Z,10.5
2023-04-10T06:54:45.000Z,10.5
2023-04-10T06:56:01.000Z,10.6
2023-04-10T06:57:18.000Z,10.7
2023-04-10T06:58:34.000Z,10.8
2023-04-10T06:59:50.000Z,10.8
2023-04-10T07:01:05.000Z,10.8
2023-04-10T07:02:22.000Z,10.9
2023-04-10T07:03:38.000Z,11
2023-04-10T07:04:54.000Z,11
2023-04-10T07:06:10.000Z,11.1
2023-04-10T07:07:26.000Z,11.2
2023-04-10T07:08:43.000Z,11.3
2023-04-10T07:09:59.000Z,11.3
2023-04-10T07:11:15.000Z,11.3
2023-04-10T07:12:31.000Z,11.4
2023-04-10T07:13:48.000Z,11.5
2023-04-10T07:15:04.000Z,11.6
2023-04-10T07:16:20.000Z,11.8
2023-04-10T07:17:35.000Z,11.9
2023-04-10T07:18:52.000Z,12
2023-04-10T07:20:08.000Z,12
2023-04-10T07:21:24.000Z,12.1
2023-04-10T07:22:40.000Z,12.2
2023-04-10T07:23:57.000Z,12.3
2023-04-10T07:25:13.000Z,12.3
2023-04-10T07:26:29.000Z,12.4
2023-04-10T07:27:45.000Z,12.5
2023-04-10T07:29:01.000Z,12.6
2023-04-10T07:30:18.000Z,12.7
2023-04-10T07:31:34.000Z,12.8
2023-04-10T07:32:50.000Z,13
2023-04-10T07:34:05.000Z,13
2023-04-10T07:35:22.000Z,13.1
2023-04-10T07:36:38.000Z,13
2023-04-10T07:37:54.000Z,13
2023-04-10T07:39:10.000Z,12.9
2023-04-10T07:40:26.000Z,12.9
2023-04-10T07:41:42.000Z,12.9
2023-04-10T07:42:58.000Z,13
2023-04-10T07:44:14.000Z,13
2023-04-10T07:45:31.000Z,13
2023-04-10T07:46:47.000Z,13
2023-04-10T07:48:03.000Z,13.1
2023-04-10T07:49:19.000Z,13.1
2023-04-10T07:50:35.000Z,13.2
2023-04-10T07:51:52.000Z,13.4
2023-04-10T07:53:08.000Z,13.4
2023-04-10T07:54:24.000Z,13.4
2023-04-10T07:55:40.000Z,13.4
2023-04-10T07:56:56.000Z,13.4
2023-04-10T07:58:12.000Z,13.4
2023-04-10T07:59:28.000Z,13.4
2023-04-10T08:00:44.000Z,13.5
2023-04-10T08:02:01.000Z,13.4
2023-04-10T08:03:17.000Z,13.3
2023-04-10T08:04:33.000Z,13.3
2023-04-10T08:05:49.000Z,13.4
2023-04-10T08:07:06.000Z,13.3
2023-04-10T08:08:22.000Z,13.4
2023-04-10T08:09:38.000Z,13.4
2023-04-10T08:10:54.000Z,13.5
2023-04-10T08:12:10.000Z,13.5
2023-04-10T08:13:27.000Z,13.5
2023-04-10T08:14:42.000Z,13.5
2023-04-10T08:15:58.000Z,13.7
2023-04-10T08:17:14.000Z,13.8
2023-04-10T08:18:31.000Z,13.8
2023-04-10T08:19:47.000Z,13.8
2023-04-10T08:21:03.000Z,13.8
2023-04-10T08:22:19.000Z,13.9
2023-04-10T08:23:36.000Z,13.9
2023-04-10T08:24:52.000Z,13.9
2023-04-10T08:26:08.000Z,13.8
2023-04-10T08:27:24.000Z,13.9
2023-04-10T08:28:40.000Z,13.8
2023-04-10T08:29:57.000Z,13.8
2023-04-10T08:31:12.000Z,13.8
2023-04-10T08:32:28.000Z,13.7
2023-04-10T08:33:44.000Z,13.6
2023-04-10T08:35:01.000Z,13.6
2023-04-10T08:36:17.000Z,13.5
2023-04-10T08:37:33.000Z,13.4
2023-04-10T08:38:49.000Z,13.4
2023-04-10T08:40:06.000Z,13.5
2023-04-10T08:41:22.000Z,13.5
2023-04-10T08:42:38.000Z,13.5
2023-04-10T08:43:54.000Z,13.6
2023-04-10T08:45:11.000Z,13.6
2023-04-10T08:46:27.000Z,13.7
2023-04-10T08:47:42.000Z,13.7
2023-04-10T08:48:58.000Z,13.9
2023-04-10T08:50:15.000Z,14
2023-04-10T08:51:31.000Z,14.1
2023-04-10T08:52:47.000Z,14.1
2023-04-10T08:54:03.000Z,14.2
2023-04-10T08:55:19.000Z,14.2
2023-04-10T08:56:36.000Z,14.4
2023-04-10T08:57:52.000Z,14.6
2023-04-10T08:59:08.000Z,14.7
2023-04-10T09:00:24.000Z,14.7
2023-04-10T09:01:41.000Z,14.7
2023-04-10T09:02:57.000Z,14.8
2023-04-10T09:04:12.000Z,14.7
2023-04-10T09:05:28.000Z,14.7
2023-04-10T09:06:45.000Z,14.9
2023-04-10T09:08:01.000Z,15
2023-04-10T09:09:17.000Z,15.1
2023-04-10T09:10:33.000Z,15.1
2023-04-10T09:11:49.000Z,15.1
2023-04-10T09:13:06.000Z,15.2
2023-04-10T09:14:22.000Z,15.1
2023-04-10T09:15:38.000Z,15.1
2023-04-10T09:16:54.000Z,15.1
2023-04-10T09:18:11.000Z,15.2
2023-04-10T09:19:27.000Z,15.4
2023-04-10T09:20:42.000Z,15.5
2023-04-10T09:21:58.000Z,15.5
2023-04-10T09:23:15.000Z,15.5
2023-04-10T09:24:31.000Z,15.7
2023-04-10T09:25:47.000Z,15.9
2023-04-10T09:27:03.000Z,16
2023-04-10T09:28:20.000Z,16
2023-04-10T09:29:36.000Z,16
2023-04-10T09:30:52.000Z,16.2
2023-04-10T09:32:08.000Z,16.2
2023-04-10T09:33:24.000Z,16.3
2023-04-10T09:34:41.000Z,16.5
2023-04-10T09:35:57.000Z,16.6
2023-04-10T09:37:12.000Z,16.7
2023-04-10T09:38:28.000Z,16.7
2023-04-10T09:39:45.000Z,16.6
2023-04-10T09:41:01.000Z,16.8
2023-04-10T09:43:33.000Z,16.9
2023-04-10T09:44:50.000Z,16.9
2023-04-10T09:46:06.000Z,17
2023-04-10T09:47:22.000Z,17.1
2023-04-10T09:48:38.000Z,17.2
2023-04-10T09:49:55.000Z,17.2
2023-04-10T09:51:11.000Z,17.2
2023-04-10T09:52:27.000Z,17.2
2023-04-10T09:53:43.000Z,17.1
2023-04-10T09:54:59.000Z,17.1
2023-04-10T09:56:15.000Z,17.2
2023-04-10T09:57:31.000Z,17.2
2023-04-10T09:58:47.000Z,17.2
2023-04-10T10:00:03.000Z,17.2
2023-04-10T10:01:20.000Z,17.2
2023-04-10T10:02:36.000Z,17.1
2023-04-10T10:03:52.000Z,17
2023-04-10T10:05:08.855Z,17.1
2023-04-10T10:06:25.000Z,17.2
2023-04-10T10:07:41.000Z,17.4
2023-04-10T10:10:13.000Z,17.6
2023-04-10T10:11:30.000Z,17.7
2023-04-10T10:12:45.000Z,17.8
2023-04-10T10:14:01.000Z,17.5
2023-04-10T10:15:17.000Z,17.5
2023-04-10T10:16:33.000Z,17.6
2023-04-10T10:17:50.000Z,17.7
2023-04-10T10:19:06.000Z,17.8
2023-04-10T10:20:22.000Z,17.8
2023-04-10T10:21:38.000Z,17.8
2023-04-10T10:24:11.000Z,18
2023-04-10T10:25:27.000Z,17.9
2023-04-10T10:26:43.000Z,17.9
2023-04-10T10:28:00.000Z,18
2023-04-10T10:29:15.000Z,17.9
2023-04-10T10:30:31.000Z,17.9
2023-04-10T10:31:47.000Z,17.9
2023-04-10T10:33:04.000Z,17.9
2023-04-10T10:34:20.000Z,17.7
2023-04-10T10:35:36.000Z,17.6
2023-04-10T10:38:08.000Z,17.5
2023-04-10T10:39:25.000Z,17.6
2023-04-10T10:40:41.000Z,17.5
2023-04-10T10:41:57.000Z,17.8
2023-04-10T10:43:13.000Z,17.8
2023-04-10T10:44:30.000Z,17.9
2023-04-10T10:45:45.000Z,18
2023-04-10T10:47:01.000Z,18
2023-04-10T10:49:34.000Z,18.2
2023-04-10T10:50:49.000Z,18.2
2023-04-10T10:52:04.000Z,18
2023-04-10T10:53:20.000Z,18.1
2023-04-10T10:54:37.000Z,18.2
2023-04-10T10:55:53.000Z,18.1
2023-04-10T10:57:09.000Z,18.2
2023-04-10T10:58:25.000Z,18.3
2023-04-10T10:59:42.000Z,18.3
2023-04-10T11:00:58.000Z,18.2
2023-04-10T11:02:14.000Z,18.2
2023-04-10T11:03:30.000Z,18.3
2023-04-10T11:04:45.000Z,18.2
2023-04-10T11:06:01.000Z,18.2
2023-04-10T11:07:17.000Z,18.3
2023-04-10T11:08:33.000Z,18.3
2023-04-10T11:09:49.000Z,18.5
2023-04-10T11:11:06.000Z,18.7
2023-04-10T11:12:22.000Z,18.9
2023-04-10T11:13:38.000Z,18.9
2023-04-10T11:14:54.000Z,18.7
2023-04-10T11:16:11.000Z,18.5
2023-04-10T11:17:27.000Z,18.6
2023-04-10T11:18:43.000Z,18.7
2023-04-10T11:19:59.000Z,18.7
2023-04-10T11:21:16.000Z,18.8
2023-04-10T11:22:31.000Z,18.6
2023-04-10T11:23:47.000Z,18.4
2023-04-10T11:25:03.000Z,18.5
2023-04-10T11:26:19.000Z,18.6
2023-04-10T11:27:36.000Z,18.6
2023-04-10T11:28:52.000Z,18.6
2023-04-10T11:30:08.000Z,18.7
2023-04-10T11:31:24.000Z,18.8
2023-04-10T11:32:41.000Z,18.6
2023-04-10T11:33:57.000Z,18.7
2023-04-10T11:35:13.611Z,18.6
2023-04-10T11:36:29.000Z,18.7
2023-04-10T11:37:46.000Z,18.6
2023-04-10T11:39:01.000Z,18.7
2023-04-10T11:40:17.000Z,18.8
2023-04-10T11:41:33.000Z,18.8
2023-04-10T11:42:50.000Z,18.9
2023-04-10T11:44:06.000Z,19
2023-04-10T11:45:22.000Z,19
2023-04-10T11:46:38.000Z,18.9
2023-04-10T11:47:54.000Z,18.9
2023-04-10T11:49:11.000Z,19.1
2023-04-10T11:50:27.000Z,19.1
2023-04-10T11:51:43.000Z,19.2
2023-04-10T11:52:59.000Z,19.3
2023-04-10T11:54:16.000Z,19.4
2023-04-10T11:55:31.000Z,19.3
2023-04-10T11:56:47.000Z,19.3
2023-04-10T11:58:03.000Z,19.4
2023-04-10T11:59:20.000Z,19.5
2023-04-10T12:00:36.000Z,19.5
2023-04-10T12:01:52.000Z,19.5
2023-04-10T12:03:08.000Z,19.5
2023-04-10T12:04:25.000Z,19.7
2023-04-10T12:05:41.000Z,19.6
2023-04-10T12:06:57.000Z,19.7
2023-04-10T12:08:13.000Z,19.6
2023-04-10T12:09:29.000Z,19.6
2023-04-10T12:10:46.000Z,19.7
2023-04-10T12:12:01.000Z,19.6
2023-04-10T12:13:17.000Z,19.5
2023-04-10T12:14:33.000Z,19.3
2023-04-10T12:15:50.000Z,19.2
2023-04-10T12:17:06.000Z,19.2
2023-04-10T12:18:22.000Z,19.4
2023-04-10T12:19:38.000Z,19.6
2023-04-10T12:20:55.000Z,19.7
2023-04-10T12:22:11.000Z,20
2023-04-10T12:23:27.000Z,20.1
2023-04-10T12:24:43.000Z,19.9
2023-04-10T12:26:00.000Z,19.9
2023-04-10T12:27:16.000Z,19.8
2023-04-10T12:28:31.000Z,19.8
2023-04-10T12:29:47.000Z,19.8
2023-04-10T12:31:03.000Z,19.7
2023-04-10T12:32:20.000Z,19.7
2023-04-10T12:33:36.000Z,19.7
2023-04-10T12:34:52.000Z,19.8
2023-04-10T12:36:08.000Z,19.8
2023-04-10T12:37:25.000Z,19.9
2023-04-10T12:38:41.000Z,19.9
2023-04-10T12:39:57.000Z,20
2023-04-10T12:41:13.000Z,20
2023-04-10T12:42:30.000Z,20
2023-04-10T12:43:46.000Z,20.1
2023-04-10T12:45:01.000Z,20.2
2023-04-10T12:46:17.000Z,20.3
2023-04-10T12:47:34.000Z,20.3
2023-04-10T12:48:50.000Z,20.4
2023-04-10T12:50:06.000Z,20.3
2023-04-10T12:51:22.000Z,20.3
2023-04-10T12:52:38.000Z,20.4
2023-04-10T12:53:55.000Z,20.5
2023-04-10T12:55:11.000Z,20.7
2023-04-10T12:56:27.000Z,20.6
2023-04-10T12:57:43.000Z,20.6
2023-04-10T12:59:00.000Z,20.6
2023-04-10T13:00:16.000Z,20.5
2023-04-10T13:01:31.000Z,20.3
2023-04-10T13:02:47.000Z,20.1
2023-04-10T13:04:04.000Z,19.9
2023-04-10T13:05:20.000Z,20
2023-04-10T13:06:36.000Z,20
2023-04-10T13:07:52.000Z,20
2023-04-10T13:09:09.000Z,20
2023-04-10T13:10:25.000Z,20.3
2023-04-10T13:11:41.000Z,20.4
2023-04-10T13:12:57.000Z,20.4
2023-04-10T13:14:13.000Z,20.5
2023-04-10T13:15:30.000Z,20.7
2023-04-10T13:16:46.000Z,20.7
2023-04-10T13:18:01.000Z,20.7
2023-04-10T13:19:17.000Z,20.7
2023-04-10T13:20:34.000Z,20.7
2023-04-10T13:21:50.000Z,20.5
2023-04-10T13:23:06.000Z,20.3
2023-04-10T13:24:22.000Z,20.2
2023-04-10T13:25:39.000Z,20.3
2023-04-10T13:26:55.000Z,20.2
2023-04-10T13:28:11.000Z,20.4
2023-04-10T13:29:27.000Z,20.7
2023-04-10T13:30:44.000Z,20.8
2023-04-10T13:32:00.000Z,20.9
2023-04-10T13:33:16.000Z,21
2023-04-10T13:34:31.000Z,21
2023-04-10T13:35:47.000Z,20.8
2023-04-10T13:37:04.000Z,20.8
2023-04-10T13:38:20.000Z,21.4
2023-04-10T13:39:36.000Z,21.2
2023-04-10T13:40:52.000Z,21.2
2023-04-10T13:42:09.000Z,21
2023-04-10T13:43:25.000Z,20.8
2023-04-10T13:44:41.000Z,21
2023-04-10T13:45:57.000Z,21.1
2023-04-10T13:47:14.000Z,21
2023-04-10T13:48:30.000Z,21.3
2023-04-10T13:49:46.000Z,21.4
2023-04-10T13:51:01.000Z,21.4
2023-04-10T13:52:18.000Z,21
2023-04-10T13:53:34.000Z,21
2023-04-10T13:54:50.000Z,20.9
2023-04-10T13:56:06.000Z,20.7
2023-04-10T13:57:22.000Z,20.6
2023-04-10T13:58:39.000Z,20.6
2023-04-10T13:59:55.000Z,20.7
2023-04-10T14:01:11.000Z,20.5
2023-04-10T14:02:27.000Z,20.3
2023-04-10T14:03:44.000Z,20.4
2023-04-10T14:05:00.000Z,20.2
2023-04-10T14:06:16.000Z,20.3
2023-04-10T14:07:31.000Z,20.2
2023-04-10T14:08:48.000Z,20
2023-04-10T14:10:04.000Z,19.9
2023-04-10T14:11:20.000Z,19.7
2023-04-10T14:12:36.000Z,19.7
2023-04-10T14:13:52.000Z,19.6
2023-04-10T14:15:09.000Z,19.4
2023-04-10T14:16:25.000Z,19.3
2023-04-10T14:17:41.000Z,19.3
2023-04-10T14:18:57.000Z,19.3
2023-04-10T14:20:14.000Z,19.3
2023-04-10T14:21:30.000Z,19.3
2023-04-10T14:22:46.000Z,19.3
2023-04-10T14:24:01.000Z,19.3
2023-04-10T14:25:18.000Z,19.3
2023-04-10T14:26:34.000Z,19.3
2023-04-10T14:27:50.000Z,19.4
2023-04-10T14:29:06.000Z,19.3
2023-04-10T14:30:23.000Z,19.3
2023-04-10T14:31:39.000Z,19.3
2023-04-10T14:32:55.000Z,19.2
2023-04-10T14:34:11.000Z,19.1
2023-04-10T14:35:27.000Z,19.2
2023-04-10T14:36:44.000Z,19.2
2023-04-10T14:38:00.000Z,19.1
2023-04-10T14:39:16.000Z,18.9
2023-04-10T14:40:31.000Z,18.9
2023-04-10T14:41:48.000Z,18.9
2023-04-10T14:43:04.000Z,18.9
2023-04-10T14:44:20.000Z,18.8
2023-04-10T14:45:36.000Z,18.8
2023-04-10T14:46:53.000Z,18.8
2023-04-10T14:48:09.000Z,18.9
2023-04-10T14:49:25.000Z,18.8
2023-04-10T14:50:41.000Z,18.7
2023-04-10T14:51:58.000Z,18.7
2023-04-10T14:53:14.000Z,18.7
2023-04-10T14:55:46.000Z,18.6
2023-04-10T14:57:02.000Z,18.5
2023-04-10T14:58:18.000Z,18.5
2023-04-10T14:59:34.000Z,18.4
2023-04-10T15:00:50.000Z,18.4
2023-04-10T15:02:06.000Z,18.4
2023-04-10T15:03:23.000Z,18.3
2023-04-10T15:04:39.000Z,18.3
2023-04-10T15:05:55.000Z,18.2
2023-04-10T15:07:11.000Z,18.2
2023-04-10T15:08:28.000Z,18.2
2023-04-10T15:09:44.000Z,18.1
2023-04-10T15:11:00.000Z,18.1
2023-04-10T15:12:16.000Z,18.1
2023-04-10T15:13:33.000Z,18.1
2023-04-10T15:14:48.000Z,18.2
2023-04-10T15:16:04.000Z,18.2
2023-04-10T15:17:20.000Z,18.2
2023-04-10T15:18:36.000Z,18.1
2023-04-10T15:19:53.000Z,18
2023-04-10T15:21:09.000Z,17.9
2023-04-10T15:22:25.000Z,17.8
2023-04-10T15:23:41.000Z,17.8
2023-04-10T15:24:58.000Z,17.7
2023-04-10T15:26:14.000Z,17.7
2023-04-10T15:27:30.000Z,17.7
2023-04-10T15:28:46.000Z,17.6
2023-04-10T15:30:03.000Z,17.6
2023-04-10T15:31:18.000Z,17.6
2023-04-10T15:33:50.000Z,17.5
2023-04-10T15:35:07.000Z,17.5
2023-04-10T15:36:23.000Z,17.5
2023-04-10T15:37:39.000Z,17.4
2023-04-10T15:38:55.000Z,17.5
2023-04-10T15:40:11.000Z,17.4
2023-04-10T15:41:28.000Z,17.5
2023-04-10T15:42:44.000Z,17.5
2023-04-10T15:44:00.000Z,17.5
2023-04-10T15:45:16.000Z,17.6
2023-04-10T15:46:33.000Z,17.5
2023-04-10T15:47:48.000Z,17.4
2023-04-10T15:49:04.000Z,17.4
2023-04-10T15:50:20.000Z,17.4
2023-04-10T15:51:37.000Z,17.4
2023-04-10T15:52:53.000Z,17.3
2023-04-10T15:54:09.000Z,17.3
2023-04-10T15:55:25.000Z,17.3
2023-04-10T15:56:42.000Z,17.3
2023-04-10T15:57:58.000Z,17.4
2023-04-10T15:59:14.000Z,17.4
2023-04-10T16:00:30.000Z,17.4
2023-04-10T16:01:46.000Z,17.4
2023-04-10T16:03:03.000Z,17.4
2023-04-10T16:04:18.000Z,17.4
2023-04-10T16:06:50.000Z,17.4
2023-04-10T16:08:07.000Z,17.4
2023-04-10T16:09:23.000Z,17.4
2023-04-10T16:10:38.000Z,17.5
2023-04-10T16:11:54.000Z,17.4
2023-04-10T16:13:11.000Z,17.4
2023-04-10T16:14:27.000Z,17.4
2023-04-10T16:15:43.000Z,17.3
2023-04-10T16:16:59.000Z,17.3
2023-04-10T16:18:16.000Z,17.2
2023-04-10T16:19:32.000Z,17.2
2023-04-10T16:20:48.000Z,17.2
2023-04-10T16:22:04.000Z,17.2
2023-04-10T16:23:20.000Z,17.2
2023-04-10T16:24:37.000Z,17.2
2023-04-10T16:25:53.000Z,17.2
2023-04-10T16:27:08.000Z,17.1
2023-04-10T16:28:24.000Z,17.1
2023-04-10T16:29:41.000Z,17.1
2023-04-10T16:30:57.000Z,17.1
2023-04-10T16:32:13.000Z,17.1
2023-04-10T16:33:29.000Z,17.1
2023-04-10T16:34:46.000Z,17.1
2023-04-10T16:36:02.000Z,17.1
2023-04-10T16:37:18.000Z,17.1
2023-04-10T16:38:34.000Z,17.1
2023-04-10T16:39:51.000Z,17.1
2023-04-10T16:41:07.000Z,17
2023-04-10T16:42:23.000Z,17
2023-04-10T16:43:38.000Z,17
2023-04-10T16:44:54.000Z,17
2023-04-10T16:46:11.000Z,17
2023-04-10T16:47:27.000Z,17.1
2023-04-10T16:49:59.000Z,17.1
2023-04-10T16:51:16.000Z,17.1
2023-04-10T16:52:32.000Z,17.1
2023-04-10T16:53:48.000Z,17
2023-04-10T16:55:04.000Z,16.9
2023-04-10T16:56:21.000Z,16.9
2023-04-10T16:57:37.000Z,16.9
2023-04-10T16:58:53.000Z,16.9
2023-04-10T17:00:08.000Z,16.9
2023-04-10T17:01:25.000Z,16.8
2023-04-10T17:02:41.000Z,16.8
2023-04-10T17:03:57.000Z,16.8
2023-04-10T17:05:13.000Z,16.8
2023-04-10T17:06:29.000Z,16.9
2023-04-10T17:07:46.000Z,16.9
2023-04-10T17:09:02.000Z,16.9
2023-04-10T17:10:18.000Z,16.9
2023-04-10T17:11:34.000Z,16.8
2023-04-10T17:12:51.000Z,16.8
2023-04-10T17:14:07.000Z,16.8
2023-04-10T17:15:23.000Z,16.7
2023-04-10T17:16:38.000Z,16.8
2023-04-10T17:17:55.000Z,16.7
2023-04-10T17:19:11.000Z,16.7
2023-04-10T17:20:27.000Z,16.7
2023-04-10T17:21:43.000Z,16.7
2023-04-10T17:23:00.000Z,16.7
2023-04-10T17:24:16.000Z,16.7
2023-04-10T17:25:32.000Z,16.7
2023-04-10T17:26:48.000Z,16.7
2023-04-10T17:28:04.000Z,16.7
2023-04-10T17:29:21.000Z,16.6
2023-04-10T17:30:37.000Z,16.6
2023-04-10T17:31:53.000Z,16.6
2023-04-10T17:33:08.000Z,16.6
2023-04-10T17:34:25.000Z,16.6
2023-04-10T17:35:41.000Z,16.7
2023-04-10T17:36:57.000Z,16.6